Wetterdaten: Woche 03.02.14 - 09.02.14 (KW6)
Datum Zeit Temp. A. Feuchte A. Luftdruck Regen Wind Richtung Taupunkt Windchill Windben
03.02.2014 00:00 -0,4 C 83 % 1022,4 hPa 0,0 l/m 1,8 km/h N -2,9 C -0,4 C 7,2 km/h
03.02.2014 01:00 -0,7 C 84 % 1022,2 hPa 0,0 l/m 2,7 km/h N -3,1 C -0,7 C 9,7 km/h
03.02.2014 02:00 -1,0 C 85 % 1022,5 hPa 0,0 l/m 2,7 km/h N -3,2 C -1,0 C 8,4 km/h
03.02.2014 03:00 -1,2 C 86 % 1022,8 hPa 0,0 l/m 4,1 km/h N -3,2 C -1,2 C 12,9 km/h
03.02.2014 04:00 -1,3 C 86 % 1023,0 hPa 0,0 l/m 4,5 km/h N -3,3 C -1,5 C 11,3 km/h
03.02.2014 05:00 -1,5 C 87 % 1022,9 hPa 0,0 l/m 6,4 km/h N -3,3 C -2,0 C 16,9 km/h
03.02.2014 06:00 -1,7 C 86 % 1022,8 hPa 0,0 l/m 4,4 km/h N -3,7 C -1,7 C 14,5 km/h
03.02.2014 07:00 -1,9 C 86 % 1022,9 hPa 0,0 l/m 5,7 km/h N -3,9 C -1,9 C 17,3 km/h
03.02.2014 08:00 -1,9 C 86 % 1023,0 hPa 0,0 l/m 7,2 km/h N -3,9 C -3,0 C 17,7 km/h
03.02.2014 09:00 -1,6 C 86 % 1022,9 hPa 0,0 l/m 8,2 km/h N -3,6 C -3,5 C 20,1 km/h
03.02.2014 10:00 -1,1 C 86 % 1022,7 hPa 0,0 l/m 10,1 km/h N -3,1 C -4,8 C 22,5 km/h
03.02.2014 11:00 -0,5 C 85 % 1022,5 hPa 0,0 l/m 10,1 km/h N -2,8 C -4,1 C 23,7 km/h
03.02.2014 12:00 -0,3 C 84 % 1022,1 hPa 0,0 l/m 9,9 km/h N -2,7 C -3,7 C 24,5 km/h
03.02.2014 13:00 -0,1 C 81 % 1021,6 hPa 0,0 l/m 10,8 km/h N -3,0 C -4,2 C 26,1 km/h
03.02.2014 14:00 -0,1 C 81 % 1021,3 hPa 0,0 l/m 9,6 km/h N -3,0 C -3,2 C 26,2 km/h
03.02.2014 15:00 -0,3 C 82 % 1021,0 hPa 0,0 l/m 9,7 km/h N -3,0 C -3,5 C 25,4 km/h
03.02.2014 16:00 -0,3 C 81 % 1021,0 hPa 0,0 l/m 9,6 km/h N -3,2 C -3,5 C 26,1 km/h
03.02.2014 17:00 -0,4 C 82 % 1021,1 hPa 0,0 l/m 8,3 km/h N -3,2 C -2,4 C 24,5 km/h
03.02.2014 18:00 -0,4 C 82 % 1021,2 hPa 0,0 l/m 8,5 km/h N -3,1 C -2,6 C 21,3 km/h
03.02.2014 19:00 -0,3 C 81 % 1021,0 hPa 0,0 l/m 10,3 km/h N -3,1 C -4,0 C 24,9 km/h
03.02.2014 20:00 -0,4 C 81 % 1020,7 hPa 0,0 l/m 10,8 km/h N -3,3 C -4,5 C 25,0 km/h
03.02.2014 21:00 -0,6 C 81 % 1020,6 hPa 0,0 l/m 12,1 km/h N -3,5 C -5,7 C 26,6 km/h
03.02.2014 22:00 -0,5 C 80 % 1020,4 hPa 0,0 l/m 13,5 km/h N -3,4 C -6,6 C 26,5 km/h
03.02.2014 23:00 -0,4 C 80 % 1020,4 hPa 0,0 l/m 14,7 km/h N -3,5 C -7,2 C 31,4 km/h
04.02.2014 00:00 -0,4 C 80 % 1020,4 hPa 0,0 l/m 8,5 km/h N -3,4 C -2,5 C 22,5 km/h
04.02.2014 01:00 -0,2 C 80 % 1020,0 hPa 0,0 l/m 10,3 km/h N -3,2 C -3,9 C 25,3 km/h
04.02.2014 02:00 -0,3 C 80 % 1019,7 hPa 0,0 l/m 9,6 km/h N -3,3 C -3,4 C 23,7 km/h
04.02.2014 03:00 -0,3 C 79 % 1019,5 hPa 0,0 l/m 8,8 km/h N -3,4 C -2,7 C 26,5 km/h
04.02.2014 04:00 -0,6 C 80 % 1019,6 hPa 0,0 l/m 5,5 km/h N -3,5 C -0,9 C 20,1 km/h
04.02.2014 05:00 -1,1 C 83 % 1019,7 hPa 0,0 l/m 1,5 km/h N -3,7 C -1,1 C 10,9 km/h
04.02.2014 06:00 -1,4 C 85 % 1019,8 hPa 0,0 l/m 2,8 km/h N -3,7 C -1,4 C 10,9 km/h
04.02.2014 07:00 -1,3 C 85 % 1020,1 hPa 0,0 l/m 3,0 km/h N -3,5 C -1,3 C 11,3 km/h
04.02.2014 08:00 -1,2 C 85 % 1020,4 hPa 0,0 l/m 5,0 km/h N -3,4 C -1,4 C 19,3 km/h
04.02.2014 09:00 -0,9 C 84 % 1020,7 hPa 0,0 l/m 10,8 km/h N -3,4 C -5,1 C 27,4 km/h
04.02.2014 10:00 -0,8 C 83 % 1020,6 hPa 0,0 l/m 9,4 km/h N -3,3 C -3,8 C 24,9 km/h
04.02.2014 11:00 -0,7 C 83 % 1020,5 hPa 0,0 l/m 10,0 km/h N -3,2 C -4,2 C 22,5 km/h
04.02.2014 12:00 -0,7 C 84 % 1020,4 hPa 0,0 l/m 9,6 km/h N -3,1 C -3,8 C 22,5 km/h
04.02.2014 13:00 -0,6 C 84 % 1019,8 hPa 0,0 l/m 13,9 km/h N -3,0 C -7,0 C 25,8 km/h
04.02.2014 14:00 -0,6 C 84 % 1019,3 hPa 0,0 l/m 13,9 km/h N -3,0 C -7,0 C 29,4 km/h
04.02.2014 15:00 -0,7 C 84 % 1018,9 hPa 0,0 l/m 13,1 km/h N -3,0 C -6,5 C 28,6 km/h
04.02.2014 16:00 -0,8 C 85 % 1018,7 hPa 0,0 l/m 8,9 km/h N -3,0 C -3,4 C 23,7 km/h
04.02.2014 17:00 -0,9 C 86 % 1018,6 hPa 0,0 l/m 9,3 km/h N -2,9 C -3,8 C 23,7 km/h
04.02.2014 18:00 -1,1 C 86 % 1018,8 hPa 0,0 l/m 7,7 km/h N -3,2 C -2,5 C 22,5 km/h
04.02.2014 19:00 -1,2 C 86 % 1018,8 hPa 0,0 l/m 8,9 km/h N -3,2 C -3,8 C 24,5 km/h
04.02.2014 20:00 -1,3 C 86 % 1018,7 hPa 0,0 l/m 7,0 km/h N -3,3 C -1,9 C 20,9 km/h
04.02.2014 21:00 -1,2 C 86 % 1018,4 hPa 0,0 l/m 7,4 km/h N -3,3 C -2,3 C 20,9 km/h
04.02.2014 22:00 -1,3 C 86 % 1018,0 hPa 0,0 l/m 7,7 km/h N -3,3 C -2,8 C 23,7 km/h
04.02.2014 23:00 -1,3 C 86 % 1017,4 hPa 0,0 l/m 6,1 km/h N -3,3 C -1,5 C 20,1 km/h
05.02.2014 00:00 -1,4 C 86 % 1016,9 hPa 0,0 l/m 7,9 km/h N -3,5 C -3,0 C 22,9 km/h
05.02.2014 01:00 -1,5 C 85 % 1016,4 hPa 0,0 l/m 8,1 km/h N -3,7 C -3,3 C 22,5 km/h
05.02.2014 02:00 -1,6 C 85 % 1016,2 hPa 0,0 l/m 7,8 km/h N -3,8 C -3,0 C 23,7 km/h
05.02.2014 03:00 -1,5 C 85 % 1015,8 hPa 0,0 l/m 8,7 km/h N -3,7 C -3,9 C 22,1 km/h
05.02.2014 04:00 -1,5 C 85 % 1015,6 hPa 0,0 l/m 10,9 km/h N -3,7 C -5,8 C 25,8 km/h
05.02.2014 05:00 -1,7 C 86 % 1015,3 hPa 0,0 l/m 10,3 km/h N -3,8 C -5,5 C 25,7 km/h
05.02.2014 06:00 -1,7 C 85 % 1015,0 hPa 0,0 l/m 8,2 km/h N -3,9 C -3,6 C 22,9 km/h
05.02.2014 07:00 -1,7 C 85 % 1014,7 hPa 0,0 l/m 6,3 km/h N -3,9 C -2,5 C 18,5 km/h
05.02.2014 08:00 -1,5 C 86 % 1014,3 hPa 0,0 l/m 5,3 km/h N -3,5 C -1,5 C 20,1 km/h
05.02.2014 09:00 -0,6 C 86 % 1013,6 hPa 0,0 l/m 10,1 km/h N -2,6 C -4,1 C 22,1 km/h
05.02.2014 10:00 -0,1 C 85 % 1013,3 hPa 0,0 l/m 8,9 km/h N -2,4 C -2,8 C 12,5 km/h
05.02.2014 11:00 0,3 C 84 % 1012,4 hPa 0,3 l/m 10,9 km/h N -2,0 C -3,8 C 27,8 km/h
05.02.2014 12:00 1,7 C 83 % 1011,3 hPa 0,0 l/m 11,0 km/h N -1,0 C -2,2 C 29,0 km/h
05.02.2014 13:00 2,5 C 81 % 1010,3 hPa 1,0 l/m 6,7 km/h N -0,6 C 1,7 C 21,7 km/h
05.02.2014 14:00 1,6 C 83 % 1009,4 hPa 0,0 l/m 10,6 km/h N -1,0 C -2,0 C 27,8 km/h
05.02.2014 15:00 1,3 C 84 % 1008,6 hPa 0,0 l/m 11,4 km/h N -1,2 C -2,9 C 26,5 km/h
05.02.2014 16:00 0,6 C 86 % 1008,5 hPa 0,0 l/m 7,9 km/h N -1,6 C -1,5 C 21,8 km/h
05.02.2014 17:00 0,5 C 88 % 1008,1 hPa 0,0 l/m 7,0 km/h N -1,4 C -1,1 C 20,9 km/h
05.02.2014 18:00 0,7 C 86 % 1007,9 hPa 0,0 l/m 3,7 km/h N -1,4 C 0,7 C 12,5 km/h
05.02.2014 19:00 0,6 C 86 % 1007,5 hPa 0,3 l/m 5,6 km/h N -1,5 C -0,7 C 15,7 km/h
05.02.2014 20:00 0,2 C 86 % 1007,5 hPa 0,0 l/m 0,3 km/h N -1,9 C 0,2 C 4,4 km/h
05.02.2014 21:00 0,3 C 86 % 1007,8 hPa 0,0 l/m 2,0 km/h N -1,8 C 0,3 C 15,3 km/h
05.02.2014 22:00 0,5 C 85 % 1008,0 hPa 0,0 l/m 2,4 km/h N -1,7 C 0,5 C 10,9 km/h
05.02.2014 23:00 0,6 C 84 % 1008,6 hPa 0,0 l/m 2,0 km/h N -1,7 C 0,6 C 9,7 km/h
06.02.2014 00:00 0,6 C 84 % 1009,3 hPa 0,0 l/m 0,3 km/h N -1,8 C 0,6 C 2,4 km/h
06.02.2014 01:00 0,7 C 84 % 1010,0 hPa 0,0 l/m 0,3 km/h N -1,7 C 0,7 C 4,0 km/h
06.02.2014 02:00 0,7 C 84 % 1010,8 hPa 0,0 l/m 0,3 km/h N -1,7 C 0,7 C 3,6 km/h
06.02.2014 03:00 0,6 C 84 % 1011,2 hPa 0,0 l/m 0,0 km/h N -1,7 C 0,6 C 1,6 km/h
06.02.2014 04:00 0,4 C 84 % 1011,9 hPa 0,0 l/m 0,2 km/h N -2,0 C 0,4 C 2,4 km/h
06.02.2014 05:00 0,3 C 84 % 1012,6 hPa 0,0 l/m 0,0 km/h N -2,1 C 0,3 C 0,0 km/h
06.02.2014 06:00 0,2 C 84 % 1013,0 hPa 0,0 l/m 0,2 km/h N -2,3 C 0,2 C 2,0 km/h
06.02.2014 07:00 0,2 C 83 % 1013,5 hPa 0,0 l/m 0,1 km/h N -2,3 C 0,2 C 1,6 km/h
06.02.2014 08:00 0,3 C 83 % 1014,0 hPa 0,0 l/m 0,0 km/h N -2,2 C 0,3 C 0,8 km/h
06.02.2014 09:00 0,6 C 83 % 1014,4 hPa 0,0 l/m 0,1 km/h N -1,9 C 0,6 C 1,6 km/h
06.02.2014 10:00 1,1 C 82 % 1014,7 hPa 0,0 l/m 0,3 km/h N -1,6 C 1,1 C 3,6 km/h
06.02.2014 11:00 1,8 C 82 % 1014,8 hPa 0,3 l/m 1,3 km/h N -0,9 C 1,8 C 6,4 km/h
06.02.2014 12:00 2,8 C 82 % 1014,4 hPa 0,3 l/m 2,9 km/h N 0,0 C 2,8 C 8,0 km/h
06.02.2014 13:00 5,4 C 82 % 1013,6 hPa 0,0 l/m 3,6 km/h N 2,6 C 5,4 C 12,1 km/h
06.02.2014 14:00 6,6 C 78 % 1013,5 hPa 0,0 l/m 4,4 km/h N 3,0 C 6,6 C 14,1 km/h
06.02.2014 15:00 6,6 C 77 % 1013,6 hPa 0,0 l/m 4,4 km/h N 2,7 C 6,6 C 13,7 km/h
06.02.2014 16:00 5,4 C 80 % 1013,6 hPa 0,3 l/m 3,5 km/h N 2,1 C 5,4 C 10,1 km/h
06.02.2014 17:00 3,9 C 82 % 1013,9 hPa 0,0 l/m 0,7 km/h N 1,0 C 3,9 C 5,6 km/h
06.02.2014 18:00 2,0 C 83 % 1014,0 hPa 0,0 l/m 0,0 km/h N -0,6 C 2,0 C 0,4 km/h
06.02.2014 19:00 0,5 C 85 % 1013,8 hPa 0,0 l/m 0,1 km/h N -1,7 C 0,5 C 1,2 km/h
06.02.2014 20:00 -0,3 C 86 % 1013,5 hPa 0,0 l/m 0,0 km/h N -2,4 C -0,3 C 0,4 km/h
06.02.2014 21:00 -1,4 C 86 % 1012,9 hPa 0,0 l/m 0,0 km/h N -3,4 C -1,4 C 0,0 km/h
06.02.2014 22:00 -2,1 C 87 % 1012,1 hPa 0,0 l/m 0,0 km/h N -4,0 C -2,1 C 0,0 km/h
06.02.2014 23:00 -1,6 C 86 % 1011,2 hPa 0,0 l/m 0,3 km/h N -3,6 C -1,6 C 2,8 km/h
07.02.2014 00:00 -1,9 C 86 % 1010,3 hPa 0,0 l/m 0,1 km/h N -3,9 C -1,9 C 1,2 km/h
07.02.2014 01:00 -2,5 C 85 % 1009,4 hPa 0,0 l/m 0,0 km/h N -4,7 C -2,5 C 0,4 km/h
07.02.2014 02:00 -3,1 C 85 % 1008,8 hPa 0,0 l/m 0,0 km/h N -5,3 C -3,1 C 0,0 km/h
07.02.2014 03:00 -2,9 C 84 % 1008,3 hPa 0,0 l/m 0,0 km/h N -5,2 C -2,9 C 0,0 km/h
07.02.2014 04:00 -1,4 C 83 % 1007,6 hPa 0,0 l/m 0,9 km/h N -3,9 C -1,4 C 4,8 km/h
07.02.2014 05:00 0,1 C 82 % 1007,2 hPa 0,0 l/m 2,2 km/h N -2,6 C 0,1 C 10,1 km/h
07.02.2014 06:00 0,2 C 82 % 1007,1 hPa 0,0 l/m 2,6 km/h N -2,5 C 0,2 C 13,7 km/h
07.02.2014 07:00 0,3 C 81 % 1007,3 hPa 0,0 l/m 1,8 km/h N -2,5 C 0,3 C 9,7 km/h
07.02.2014 08:00 0,6 C 81 % 1006,9 hPa 0,0 l/m 2,0 km/h N -2,3 C 0,6 C 12,5 km/h
07.02.2014 09:00 1,0 C 80 % 1006,3 hPa 0,0 l/m 4,3 km/h N -2,0 C 1,0 C 13,7 km/h
07.02.2014 10:00 1,6 C 80 % 1006,0 hPa 0,0 l/m 1,7 km/h N -1,4 C 1,6 C 9,7 km/h
07.02.2014 11:00 2,5 C 79 % 1005,2 hPa 0,0 l/m 1,9 km/h N -0,8 C 2,5 C 10,1 km/h
07.02.2014 12:00 4,0 C 80 % 1004,0 hPa 0,0 l/m 3,3 km/h N 0,8 C 4,0 C 14,1 km/h
07.02.2014 13:00 5,5 C 85 % 1003,1 hPa 0,0 l/m 1,8 km/h N 3,2 C 5,5 C 8,9 km/h
07.02.2014 14:00 6,7 C 82 % 1003,2 hPa 0,0 l/m 1,3 km/h N 3,9 C 6,7 C 5,2 km/h
07.02.2014 15:00 6,0 C 79 % 1004,4 hPa 0,0 l/m 7,4 km/h N 2,7 C 4,9 C 18,1 km/h
07.02.2014 16:00 4,1 C 82 % 1005,0 hPa 0,0 l/m 9,0 km/h N 1,2 C 1,8 C 20,9 km/h
07.02.2014 17:00 2,6 C 84 % 1006,3 hPa 0,0 l/m 4,9 km/h N 0,1 C 2,2 C 15,3 km/h
07.02.2014 18:00 2,0 C 85 % 1006,8 hPa 0,0 l/m 1,8 km/h N -0,3 C 2,0 C 8,1 km/h
07.02.2014 19:00 0,8 C 85 % 1007,5 hPa 0,0 l/m 0,1 km/h N -1,4 C 0,8 C 1,6 km/h
07.02.2014 20:00 -0,3 C 86 % 1008,1 hPa 0,0 l/m 0,0 km/h N -2,4 C -0,3 C 0,8 km/h
07.02.2014 21:00 0,2 C 86 % 1008,4 hPa 0,0 l/m 0,7 km/h N -1,9 C 0,2 C 4,4 km/h
07.02.2014 22:00 1,0 C 85 % 1008,6 hPa 0,0 l/m 0,4 km/h N -1,1 C 1,0 C 4,4 km/h
07.02.2014 23:00 1,2 C 85 % 1009,1 hPa 0,0 l/m 0,2 km/h N -1,1 C 1,2 C 2,4 km/h
08.02.2014 00:00 1,4 C 85 % 1009,6 hPa 0,0 l/m 0,2 km/h N -0,9 C 1,4 C 3,2 km/h
08.02.2014 01:00 1,6 C 85 % 1010,1 hPa 0,0 l/m 0,1 km/h N -0,7 C 1,6 C 1,6 km/h
08.02.2014 02:00 1,8 C 84 % 1009,9 hPa 0,0 l/m 0,3 km/h N -0,6 C 1,8 C 4,4 km/h
08.02.2014 03:00 4,6 C 83 % 1009,5 hPa 0,0 l/m 4,0 km/h N 1,9 C 4,5 C 17,3 km/h
08.02.2014 04:00 7,2 C 74 % 1009,5 hPa 0,0 l/m 6,5 km/h N 2,8 C 6,7 C 20,1 km/h
08.02.2014 05:00 7,1 C 74 % 1009,8 hPa 0,0 l/m 4,0 km/h N 2,8 C 7,1 C 12,1 km/h
08.02.2014 06:00 6,3 C 78 % 1009,6 hPa 0,0 l/m 0,7 km/h N 2,7 C 6,3 C 6,0 km/h
08.02.2014 07:00 4,7 C 81 % 1009,8 hPa 0,0 l/m 0,3 km/h N 1,6 C 4,7 C 2,8 km/h
08.02.2014 08:00 3,7 C 84 % 1009,5 hPa 0,0 l/m 0,0 km/h N 1,2 C 3,7 C 0,4 km/h
08.02.2014 09:00 6,3 C 84 % 1008,7 hPa 0,0 l/m 0,4 km/h N 3,7 C 6,3 C 3,2 km/h
08.02.2014 10:00 8,0 C 76 % 1008,4 hPa 0,0 l/m 3,2 km/h N 4,0 C 8,0 C 10,1 km/h
08.02.2014 11:00 8,4 C 75 % 1007,9 hPa 0,0 l/m 5,6 km/h N 4,3 C 8,4 C 17,7 km/h
08.02.2014 12:00 9,1 C 70 % 1006,2 hPa 0,0 l/m 8,9 km/h N 3,9 C 7,4 C 20,9 km/h
08.02.2014 13:00 9,7 C 68 % 1004,7 hPa 0,0 l/m 11,6 km/h N 4,1 C 6,3 C 27,8 km/h
08.02.2014 14:00 9,5 C 69 % 1003,4 hPa 0,0 l/m 10,8 km/h N 4,1 C 6,6 C 26,2 km/h
08.02.2014 15:00 8,8 C 70 % 1002,2 hPa 0,0 l/m 11,3 km/h N 3,6 C 5,6 C 25,3 km/h
08.02.2014 16:00 7,4 C 75 % 1001,3 hPa 0,0 l/m 9,5 km/h N 3,2 C 5,1 C 22,9 km/h
08.02.2014 17:00 6,0 C 81 % 1000,7 hPa 0,0 l/m 7,2 km/h N 2,9 C 5,1 C 21,7 km/h
08.02.2014 18:00 5,1 C 82 % 999,9 hPa 0,0 l/m 1,9 km/h N 2,4 C 5,1 C 8,9 km/h
08.02.2014 19:00 4,8 C 83 % 999,4 hPa 0,0 l/m 2,0 km/h N 2,1 C 4,8 C 8,4 km/h
08.02.2014 20:00 3,9 C 83 % 999,0 hPa 0,0 l/m 0,0 km/h N 1,4 C 3,9 C 0,8 km/h
08.02.2014 21:00 2,5 C 84 % 998,8 hPa 0,0 l/m 0,1 km/h N 0,1 C 2,5 C 2,0 km/h
08.02.2014 22:00 1,7 C 86 % 998,7 hPa 0,0 l/m 0,3 km/h N -0,4 C 1,7 C 2,8 km/h
08.02.2014 23:00 2,2 C 85 % 999,0 hPa 0,0 l/m 0,3 km/h N -0,0 C 2,2 C 2,8 km/h
09.02.2014 00:00 2,4 C 85 % 999,2 hPa 0,0 l/m 0,1 km/h N 0,1 C 2,4 C 2,4 km/h
09.02.2014 01:00 2,2 C 85 % 999,6 hPa 0,0 l/m 0,0 km/h N -0,0 C 2,2 C 0,4 km/h
09.02.2014 02:00 2,1 C 85 % 1000,0 hPa 0,0 l/m 0,1 km/h N -0,1 C 2,1 C 2,0 km/h
09.02.2014 03:00 2,0 C 85 % 1000,0 hPa 0,0 l/m 0,1 km/h N -0,3 C 2,0 C 2,0 km/h
09.02.2014 04:00 1,7 C 85 % 1000,3 hPa 0,0 l/m 0,0 km/h N -0,5 C 1,7 C 0,0 km/h
09.02.2014 05:00 1,3 C 86 % 1000,8 hPa 0,0 l/m 0,0 km/h N -0,8 C 1,3 C 0,0 km/h
09.02.2014 06:00 0,9 C 86 % 1001,3 hPa 0,0 l/m 0,5 km/h N -1,2 C 0,9 C 3,2 km/h
09.02.2014 07:00 1,0 C 85 % 1001,5 hPa 0,0 l/m 0,1 km/h N -1,2 C 1,0 C 1,2 km/h
09.02.2014 08:00 1,6 C 84 % 1002,0 hPa 0,0 l/m 0,0 km/h N -0,8 C 1,6 C 0,8 km/h
09.02.2014 09:00 3,8 C 83 % 1002,1 hPa 0,0 l/m 0,2 km/h N 1,1 C 3,8 C 2,8 km/h
09.02.2014 10:00 5,0 C 85 % 1002,4 hPa 0,0 l/m 0,3 km/h N 2,7 C 5,0 C 3,6 km/h
09.02.2014 11:00 5,5 C 84 % 1002,8 hPa 0,3 l/m 2,9 km/h N 3,0 C 5,5 C 11,3 km/h
09.02.2014 12:00 4,0 C 85 % 1003,1 hPa 1,8 l/m 3,6 km/h N 1,7 C 4,0 C 14,9 km/h
09.02.2014 13:00 3,6 C 86 % 1003,1 hPa 0,5 l/m 4,4 km/h N 1,5 C 3,6 C 12,5 km/h
09.02.2014 14:00 3,8 C 86 % 1003,3 hPa 0,3 l/m 4,7 km/h N 1,7 C 3,8 C 12,9 km/h
09.02.2014 15:00 4,1 C 86 % 1003,4 hPa 0,0 l/m 3,6 km/h N 2,0 C 4,1 C 12,5 km/h
09.02.2014 16:00 4,3 C 86 % 1003,5 hPa 0,3 l/m 7,0 km/h N 2,1 C 2,8 C 18,5 km/h
09.02.2014 17:00 4,4 C 85 % 1003,8 hPa 0,0 l/m 4,2 km/h N 2,1 C 4,4 C 15,3 km/h
09.02.2014 18:00 4,2 C 85 % 1003,9 hPa 0,0 l/m 1,1 km/h N 1,9 C 4,2 C 8,8 km/h
09.02.2014 19:00 4,3 C 84 % 1003,9 hPa 0,0 l/m 0,3 km/h N 1,8 C 4,3 C 4,0 km/h
09.02.2014 20:00 5,2 C 75 % 1003,6 hPa 0,0 l/m 5,0 km/h N 1,1 C 5,2 C 17,3 km/h
09.02.2014 21:00 5,9 C 69 % 1003,7 hPa 0,0 l/m 6,1 km/h N 0,6 C 5,5 C 19,7 km/h
09.02.2014 22:00 6,2 C 66 % 1003,8 hPa 0,0 l/m 9,1 km/h N 0,3 C 4,0 C 25,3 km/h
09.02.2014 23:00 5,8 C 66 % 1004,5 hPa 0,0 l/m 8,4 km/h N -0,2 C 3,8 C 25,7 km/h
Min-Datum _ 07.02.14 09.02.14 08.02.14 - 06.02.14 - 07.02.14 05.02.14 06.02.14
_ Min-Zeit 02:45 23:45 22:30 - 00:30 - 02:30 04:30 03:15
Minimum _ -3,3 C 64 % 998,5 hPa - 0,0 km/h - -5,4 C -8,4 C 0,0 km/h
Max-Datum _ 08.02.14 05.02.14 03.02.14 09.02.14 04.02.14 - 08.02.14 08.02.14 03.02.14
_ Max-Zeit 13:00 17:45 05:00 12:00 13:45 - 11:15 11:30 23:00
Maximum _ 9,9 C 92 % 1023,1 hPa 1,8 l/m 16,1 km/h
N
- 4,4 C 8,5 C 33,8 km/h
N
Durchschnitt _ 1,4 C 83 % 1011,5 hPa #5,5 l/m 4,7 km/h N -1,2 C 0,3 C 13,6 km/h